Time,TemperatureF,DewpointF,PressureIn,WindDirection,WindDirectionDegrees,WindSpeedMPH,WindSpeedGustMPH,Humidity,HourlyPrecipIn,Conditions,Clouds,dailyrainin,SolarRadiationWatts/m^2,SoftwareType,DateUTC
2013-04-07 00:00:00,45.0,31.5,29.73,North,-999,0.0,0.0,59,0.00,,,0.00,0.00,VWS V14.01,2013-04-07 06:00:00,
2013-04-07 00:05:00,43.8,28.2,29.73,North,-999,5.0,6.0,54,0.00,,,0.00,0.00,VWS V14.01,2013-04-07 06:05:00,
2013-04-07 00:10:00,42.9,29.6,29.73,North,-999,3.0,5.0,59,0.00,,,0.00,0.00,VWS V14.01,2013-04-07 06:10:00,
2013-04-07 00:15:00,42.9,30.0,29.72,North,-999,0.0,5.0,60,0.00,,,0.00,0.00,VWS V14.01,2013-04-07 06:15:00,
2013-04-07 00:20:00,43.1,30.2,29.72,North,-999,0.0,0.0,60,0.00,,,0.00,0.00,VWS V14.01,2013-04-07 06:20:00,
2013-04-07 00:25:00,43.2,29.9,29.72,North,-999,0.0,0.0,59,0.00,,,0.00,0.00,VWS V14.01,2013-04-07 06:25:00,
2013-04-07 00:30:00,43.6,32.2,29.72,North,-999,0.0,0.0,64,0.00,,,0.00,0.00,VWS V14.01,2013-04-07 06:30:00,
2013-04-07 00:35:00,44.3,32.9,29.72,North,-999,0.0,0.0,64,0.00,,,0.00,0.00,VWS V14.01,2013-04-07 06:35:00,
2013-04-07 00:40:00,44.9,32.3,29.72,North,-999,0.0,0.0,61,0.00,,,0.00,0.00,VWS V14.01,2013-04-07 06:40:00,
2013-04-07 00:45:00,45.1,32.9,29.72,North,-999,0.0,0.0,62,0.00,,,0.00,0.00,VWS V14.01,2013-04-07 06:45:00,
2013-04-07 00:50:00,45.7,33.4,29.72,North,-999,0.0,0.0,62,0.00,,,0.00,0.00,VWS V14.01,2013-04-07 06:50:00,
2013-04-07 00:55:00,46.0,33.3,29.72,North,-999,0.0,0.0,61,0.00,,,0.00,0.00,VWS V14.01,2013-04-07 06:55:00,
2013-04-07 01:00:00,46.1,33.4,29.72,North,-999,0.0,0.0,61,0.00,,,0.00,0.00,VWS V14.01,2013-04-07 07:00:00,
2013-04-07 01:05:00,46.2,33.5,29.72,North,-999,0.0,0.0,61,0.00,,,0.00,0.00,VWS V14.01,2013-04-07 07:05:00,
2013-04-07 01:10:00,46.1,32.6,29.72,North,-999,0.0,0.0,59,0.00,,,0.00,0.00,VWS V14.01,2013-04-07 07:10:00,
2013-04-07 01:15:00,45.8,33.1,29.72,North,-999,0.0,0.0,61,0.00,,,0.00,0.00,VWS V14.01,2013-04-07 07:15:00,
2013-04-07 01:20:00,45.7,32.2,29.72,North,-999,0.0,0.0,59,0.00,,,0.00,0.00,VWS V14.01,2013-04-07 07:20:00,
2013-04-07 01:25:00,45.4,31.9,29.72,North,-999,0.0,0.0,59,0.00,,,0.00,0.00,VWS V14.01,2013-04-07 07:25:00,
2013-04-07 01:30:00,45.0,31.5,29.72,North,-999,0.0,0.0,59,0.00,,,0.00,0.00,VWS V14.01,2013-04-07 07:30:00,
2013-04-07 01:35:00,44.7,31.7,29.71,North,-999,0.0,0.0,60,0.00,,,0.00,0.00,VWS V14.01,2013-04-07 07:35:00,
2013-04-07 01:40:00,44.4,31.4,29.72,North,-999,0.0,0.0,60,0.00,,,0.00,0.00,VWS V14.01,2013-04-07 07:40:00,
2013-04-07 01:45:00,44.5,31.5,29.71,North,-999,0.0,0.0,60,0.00,,,0.00,0.00,VWS V14.01,2013-04-07 07:45:00,
2013-04-07 01:50:00,44.4,31.0,29.71,North,-999,0.0,0.0,59,0.00,,,0.00,0.00,VWS V14.01,2013-04-07 07:50:00,
2013-04-07 01:55:00,44.2,30.8,29.71,North,-999,0.0,0.0,59,0.00,,,0.00,0.00,VWS V14.01,2013-04-07 07:55:00,
2013-04-07 02:00:00,43.9,30.5,29.71,North,-999,0.0,0.0,59,0.00,,,0.00,0.00,VWS V14.01,2013-04-07 08:00:00,
2013-04-07 02:05:00,43.6,30.6,29.71,North,-999,0.0,0.0,60,0.00,,,0.00,0.00,VWS V14.01,2013-04-07 08:05:00,
2013-04-07 02:10:00,43.5,30.1,29.71,North,-999,0.0,0.0,59,0.00,,,0.00,0.00,VWS V14.01,2013-04-07 08:10:00,
2013-04-07 02:15:00,43.0,29.2,29.70,North,-999,0.0,4.0,58,0.00,,,0.00,0.00,VWS V14.01,2013-04-07 08:15:00,
2013-04-07 02:20:00,42.8,29.9,29.70,North,-999,0.0,0.0,60,0.00,,,0.00,0.00,VWS V14.01,2013-04-07 08:20:00,
2013-04-07 02:25:00,42.7,30.2,29.70,North,-999,0.0,0.0,61,0.00,,,0.00,0.00,VWS V14.01,2013-04-07 08:25:00,
2013-04-07 02:30:00,42.6,30.5,29.70,North,-999,0.0,0.0,62,0.00,,,0.00,0.00,VWS V14.01,2013-04-07 08:30:00,
2013-04-07 02:35:00,42.6,30.5,29.70,North,-999,0.0,0.0,62,0.00,,,0.00,0.00,VWS V14.01,2013-04-07 08:35:00,
2013-04-07 02:40:00,42.6,29.7,29.70,North,-999,0.0,0.0,60,0.00,,,0.00,0.00,VWS V14.01,2013-04-07 08:40:00,
2013-04-07 02:45:00,42.6,31.3,29.70,North,-999,0.0,0.0,64,0.00,,,0.00,0.00,VWS V14.01,2013-04-07 08:45:00,
2013-04-07 02:50:00,43.0,30.9,29.70,North,-999,0.0,0.0,62,0.00,,,0.00,0.00,VWS V14.01,2013-04-07 08:50:00,
2013-04-07 02:55:00,43.5,31.0,29.70,North,-999,5.0,6.0,61,0.00,,,0.00,0.00,VWS V14.01,2013-04-07 08:55:00,
2013-04-07 03:00:00,43.6,31.0,29.70,North,-999,5.0,6.0,61,0.00,,,0.00,0.00,VWS V14.01,2013-04-07 09:00:00,
2013-04-07 03:05:00,43.2,30.3,29.70,North,-999,4.0,6.0,60,0.00,,,0.00,0.00,VWS V14.01,2013-04-07 09:05:00,
2013-04-07 03:10:00,42.6,29.7,29.70,North,-999,6.0,7.0,60,0.00,,,0.00,0.00,VWS V14.01,2013-04-07 09:10:00,
2013-04-07 03:15:00,42.7,31.0,29.70,North,-999,6.0,7.0,63,0.00,,,0.00,0.00,VWS V14.01,2013-04-07 09:15:00,
2013-04-07 03:20:00,42.8,30.3,29.69,North,-999,4.0,7.0,61,0.00,,,0.00,0.00,VWS V14.01,2013-04-07 09:20:00,
2013-04-07 03:25:00,43.9,31.7,29.70,North,-999,8.0,9.0,62,0.00,,,0.00,0.00,VWS V14.01,2013-04-07 09:25:00,
2013-04-07 03:30:00,44.4,31.4,29.70,North,-999,5.0,6.0,60,0.00,,,0.00,0.00,VWS V14.01,2013-04-07 09:30:00,
2013-04-07 03:35:00,44.3,30.5,29.70,North,-999,6.0,13.0,58,0.00,,,0.00,0.00,VWS V14.01,2013-04-07 09:35:00,
2013-04-07 03:40:00,43.4,30.9,29.69,North,-999,5.0,6.0,61,0.00,,,0.00,0.00,VWS V14.01,2013-04-07 09:40:00,
2013-04-07 03:45:00,43.2,30.7,29.69,North,-999,0.0,6.0,61,0.00,,,0.00,0.00,VWS V14.01,2013-04-07 09:45:00,
2013-04-07 03:50:00,43.0,30.5,29.69,North,-999,0.0,0.0,61,0.00,,,0.00,0.00,VWS V14.01,2013-04-07 09:50:00,
2013-04-07 03:55:00,42.6,30.1,29.69,North,-999,0.0,0.0,61,0.00,,,0.00,0.00,VWS V14.01,2013-04-07 09:55:00,
2013-04-07 04:00:00,42.1,29.2,29.69,North,-999,0.0,0.0,60,0.00,,,0.00,0.00,VWS V14.01,2013-04-07 10:00:00,
2013-04-07 04:05:00,41.9,30.2,29.69,North,-999,0.0,0.0,63,0.00,,,0.00,0.00,VWS V14.01,2013-04-07 10:05:00,
2013-04-07 04:10:00,42.0,30.3,29.70,North,-999,0.0,0.0,63,0.00,,,0.00,0.00,VWS V14.01,2013-04-07 10:10:00,
2013-04-07 04:15:00,42.1,30.8,29.69,North,-999,0.0,0.0,64,0.00,,,0.00,0.00,VWS V14.01,2013-04-07 10:15:00,
2013-04-07 04:20:00,42.2,30.5,29.69,North,-999,2.0,4.0,63,0.00,,,0.00,0.00,VWS V14.01,2013-04-07 10:20:00,
2013-04-07 04:25:00,42.4,30.7,29.69,North,-999,0.0,4.0,63,0.00,,,0.00,0.00,VWS V14.01,2013-04-07 10:25:00,
2013-04-07 04:30:00,42.2,30.5,29.69,North,-999,0.0,0.0,63,0.00,,,0.00,0.00,VWS V14.01,2013-04-07 10:30:00,
2013-04-07 04:35:00,42.3,31.0,29.69,North,-999,0.0,0.0,64,0.00,,,0.00,0.00,VWS V14.01,2013-04-07 10:35:00,
2013-04-07 04:40:00,42.4,31.5,29.69,North,-999,0.0,0.0,65,0.00,,,0.00,0.00,VWS V14.01,2013-04-07 10:40:00,
2013-04-07 04:45:00,42.3,30.6,29.69,North,-999,0.0,0.0,63,0.00,,,0.00,0.00,VWS V14.01,2013-04-07 10:45:00,
2013-04-07 04:50:00,41.8,30.5,29.69,North,-999,0.0,0.0,64,0.00,,,0.00,0.00,VWS V14.01,2013-04-07 10:50:00,
2013-04-07 04:55:00,41.3,30.1,29.69,North,-999,0.0,0.0,64,0.00,,,0.00,0.00,VWS V14.01,2013-04-07 10:55:00,
2013-04-07 05:00:00,40.9,30.4,29.69,North,-999,0.0,0.0,66,0.00,,,0.00,0.00,VWS V14.01,2013-04-07 11:00:00,
2013-04-07 05:05:00,40.7,31.0,29.69,North,-999,4.0,5.0,68,0.00,,,0.00,0.00,VWS V14.01,2013-04-07 11:05:00,
2013-04-07 05:10:00,40.7,31.3,29.69,North,-999,3.0,5.0,69,0.00,,,0.00,0.00,VWS V14.01,2013-04-07 11:10:00,
2013-04-07 05:15:00,40.7,32.0,29.69,North,-999,0.0,6.0,71,0.00,,,0.00,0.00,VWS V14.01,2013-04-07 11:15:00,
2013-04-07 05:20:00,40.5,31.5,29.69,North,-999,0.0,6.0,70,0.00,,,0.00,0.00,VWS V14.01,2013-04-07 11:20:00,
2013-04-07 05:25:00,40.4,32.1,29.69,North,-999,0.0,6.0,72,0.00,,,0.00,0.00,VWS V14.01,2013-04-07 11:25:00,
2013-04-07 05:30:00,40.4,32.1,29.69,North,-999,0.0,0.0,72,0.00,,,0.00,0.00,VWS V14.01,2013-04-07 11:30:00,
2013-04-07 05:35:00,40.1,31.1,29.69,North,-999,0.0,0.0,70,0.00,,,0.00,0.00,VWS V14.01,2013-04-07 11:35:00,
2013-04-07 05:40:00,39.7,31.1,29.69,North,-999,0.0,0.0,71,0.00,,,0.00,0.00,VWS V14.01,2013-04-07 11:40:00,
2013-04-07 05:45:00,39.5,31.6,29.69,North,-999,0.0,0.0,73,0.00,,,0.00,0.00,VWS V14.01,2013-04-07 11:45:00,
2013-04-07 05:50:00,39.5,31.2,29.69,North,-999,0.0,0.0,72,0.00,,,0.00,0.00,VWS V14.01,2013-04-07 11:50:00,
2013-04-07 05:55:00,39.5,31.6,29.69,North,-999,4.0,4.0,73,0.00,,,0.00,0.00,VWS V14.01,2013-04-07 11:55:00,
2013-04-07 06:00:00,38.7,29.1,29.69,North,-999,6.0,7.0,68,0.00,,,0.00,0.00,VWS V14.01,2013-04-07 12:00:00,
2013-04-07 06:05:00,37.6,28.0,29.69,North,-999,4.0,7.0,68,0.00,,,0.00,0.00,VWS V14.01,2013-04-07 12:05:00,
2013-04-07 06:10:00,37.2,28.0,29.69,North,-999,0.0,0.0,69,0.00,,,0.00,0.00,VWS V14.01,2013-04-07 12:10:00,
2013-04-07 06:15:00,37.1,28.6,29.69,North,-999,0.0,0.0,71,0.00,,,0.00,0.00,VWS V14.01,2013-04-07 12:15:00,
2013-04-07 06:20:00,37.3,28.4,29.69,North,-999,0.0,0.0,70,0.00,,,0.00,0.00,VWS V14.01,2013-04-07 12:20:00,
2013-04-07 06:25:00,37.3,28.4,29.69,North,-999,3.0,5.0,70,0.00,,,0.00,0.00,VWS V14.01,2013-04-07 12:25:00,
2013-04-07 06:30:00,37.1,28.2,29.69,North,-999,4.0,5.0,70,0.00,,,0.00,0.00,VWS V14.01,2013-04-07 12:30:00,
2013-04-07 06:35:00,37.1,28.6,29.69,North,-999,2.0,5.0,71,0.00,,,0.00,0.00,VWS V14.01,2013-04-07 12:35:00,
2013-04-07 06:40:00,37.1,28.9,29.69,North,-999,8.0,8.0,72,0.00,,,0.00,0.00,VWS V14.01,2013-04-07 12:40:00,
2013-04-07 06:45:00,37.3,29.5,29.69,North,-999,3.0,8.0,73,0.00,,,0.00,7.00,VWS V14.01,2013-04-07 12:45:00,
2013-04-07 06:50:00,37.5,30.0,29.69,North,-999,4.0,6.0,74,0.00,,,0.00,18.00,VWS V14.01,2013-04-07 12:50:00,
2013-04-07 06:55:00,37.6,29.4,29.68,North,-999,5.0,6.0,72,0.00,,,0.00,19.00,VWS V14.01,2013-04-07 12:55:00,
2013-04-07 07:00:00,37.7,29.8,29.68,North,-999,5.0,5.0,73,0.00,,,0.00,21.00,VWS V14.01,2013-04-07 13:00:00,
2013-04-07 07:05:00,37.6,29.7,29.68,North,-999,7.0,7.0,73,0.00,,,0.00,26.00,VWS V14.01,2013-04-07 13:05:00,
2013-04-07 07:10:00,37.7,30.2,29.68,North,-999,6.0,7.0,74,0.00,,,0.00,32.00,VWS V14.01,2013-04-07 13:10:00,
2013-04-07 07:15:00,37.8,29.9,29.68,North,-999,9.0,9.0,73,0.00,,,0.00,37.00,VWS V14.01,2013-04-07 13:15:00,
2013-04-07 07:20:00,37.8,30.3,29.68,North,-999,6.0,9.0,74,0.00,,,0.00,51.00,VWS V14.01,2013-04-07 13:20:00,
2013-04-07 07:25:00,37.9,30.0,29.68,North,-999,4.0,9.0,73,0.00,,,0.00,60.00,VWS V14.01,2013-04-07 13:25:00,
2013-04-07 07:30:00,38.1,30.2,29.67,North,-999,5.0,6.0,73,0.00,,,0.00,63.00,VWS V14.01,2013-04-07 13:30:00,
2013-04-07 07:35:00,38.3,30.4,29.68,North,-999,4.0,6.0,73,0.00,,,0.00,53.00,VWS V14.01,2013-04-07 13:35:00,
2013-04-07 07:41:00,38.5,30.6,29.67,North,-999,3.0,5.0,73,0.00,,,0.00,58.00,VWS V14.01,2013-04-07 13:41:00,
2013-04-07 07:46:00,38.6,30.7,29.67,North,-999,3.0,5.0,73,0.00,,,0.00,63.00,VWS V14.01,2013-04-07 13:46:00,
2013-04-07 07:51:00,38.6,30.7,29.67,North,-999,0.0,0.0,73,0.00,,,0.00,65.00,VWS V14.01,2013-04-07 13:51:00,
2013-04-07 07:56:00,38.7,31.1,29.67,North,-999,0.0,0.0,74,0.00,,,0.00,67.00,VWS V14.01,2013-04-07 13:56:00,
2013-04-07 08:01:00,38.9,31.0,29.67,North,-999,0.0,0.0,73,0.00,,,0.00,69.00,VWS V14.01,2013-04-07 14:01:00,
2013-04-07 08:06:00,39.1,31.2,29.66,North,-999,0.0,0.0,73,0.00,,,0.00,70.00,VWS V14.01,2013-04-07 14:06:00,
2013-04-07 08:11:00,39.3,31.4,29.66,North,-999,4.0,5.0,73,0.00,,,0.00,70.00,VWS V14.01,2013-04-07 14:11:00,
2013-04-07 08:16:00,39.6,32.0,29.66,North,-999,4.0,6.0,74,0.00,,,0.00,67.00,VWS V14.01,2013-04-07 14:16:00,
2013-04-07 08:21:00,39.9,32.0,29.66,North,-999,5.0,5.0,73,0.00,,,0.00,70.00,VWS V14.01,2013-04-07 14:21:00,
2013-04-07 08:26:00,40.0,31.7,29.67,North,-999,6.0,7.0,72,0.00,,,0.00,84.00,VWS V14.01,2013-04-07 14:26:00,
2013-04-07 08:31:00,40.0,31.7,29.66,North,-999,3.0,6.0,72,0.00,,,0.00,95.00,VWS V14.01,2013-04-07 14:31:00,
2013-04-07 08:36:00,39.9,32.0,29.66,North,-999,3.0,7.0,73,0.00,,,0.00,104.00,VWS V14.01,2013-04-07 14:36:00,
2013-04-07 08:41:00,40.1,32.2,29.66,North,-999,6.0,10.0,73,0.00,,,0.00,118.00,VWS V14.01,2013-04-07 14:41:00,
2013-04-07 08:46:00,40.4,32.4,29.66,North,-999,7.0,11.0,73,0.00,,,0.00,120.00,VWS V14.01,2013-04-07 14:46:00,
2013-04-07 08:51:00,40.7,33.1,29.66,North,-999,9.0,11.0,74,0.00,,,0.00,130.00,VWS V14.01,2013-04-07 14:51:00,
2013-04-07 08:56:00,41.0,33.4,29.66,North,-999,7.0,11.0,74,0.00,,,0.00,146.00,VWS V14.01,2013-04-07 14:56:00,
2013-04-07 09:01:00,41.5,33.5,29.65,North,-999,5.0,9.0,73,0.00,,,0.00,135.00,VWS V14.01,2013-04-07 15:01:00,
2013-04-07 09:06:00,42.1,34.1,29.65,North,-999,5.0,9.0,73,0.00,,,0.00,120.00,VWS V14.01,2013-04-07 15:06:00,
2013-04-07 09:11:00,42.6,34.2,29.65,North,-999,5.0,9.0,72,0.00,,,0.00,114.00,VWS V14.01,2013-04-07 15:11:00,
2013-04-07 09:16:00,42.7,34.3,29.65,North,-999,6.0,9.0,72,0.00,,,0.00,120.00,VWS V14.01,2013-04-07 15:16:00,
2013-04-07 09:21:00,42.9,34.2,29.64,North,-999,6.0,6.0,71,0.00,,,0.00,123.00,VWS V14.01,2013-04-07 15:21:00,
2013-04-07 09:26:00,43.3,34.2,29.64,North,-999,6.0,7.0,70,0.00,,,0.00,121.00,VWS V14.01,2013-04-07 15:26:00,
2013-04-07 09:31:00,43.5,34.4,29.64,North,-999,5.0,7.0,70,0.00,,,0.00,123.00,VWS V14.01,2013-04-07 15:31:00,
2013-04-07 09:36:00,43.7,34.2,29.64,North,-999,4.0,7.0,69,0.00,,,0.00,128.00,VWS V14.01,2013-04-07 15:36:00,
2013-04-07 09:41:00,43.9,34.4,29.64,North,-999,1.0,5.0,69,0.00,,,0.00,144.00,VWS V14.01,2013-04-07 15:41:00,
2013-04-07 09:46:00,44.0,34.1,29.64,North,-999,0.0,5.0,68,0.00,,,0.00,125.00,VWS V14.01,2013-04-07 15:46:00,
2013-04-07 09:52:00,44.2,34.3,29.63,North,-999,0.0,0.0,68,0.00,,,0.00,107.00,VWS V14.01,2013-04-07 15:52:00,
2013-04-07 09:57:00,44.3,34.4,29.63,North,-999,0.0,0.0,68,0.00,,,0.00,114.00,VWS V14.01,2013-04-07 15:57:00,
2013-04-07 10:02:00,44.4,34.1,29.63,North,-999,0.0,0.0,67,0.00,,,0.00,125.00,VWS V14.01,2013-04-07 16:02:00,
2013-04-07 10:07:00,44.6,34.3,29.63,North,-999,0.0,0.0,67,0.00,,,0.00,139.00,VWS V14.01,2013-04-07 16:07:00,
2013-04-07 10:12:00,44.9,34.2,29.63,North,-999,0.0,0.0,66,0.00,,,0.00,151.00,VWS V14.01,2013-04-07 16:12:00,
2013-04-07 10:17:00,45.1,34.0,29.63,North,-999,0.0,0.0,65,0.00,,,0.00,172.00,VWS V14.01,2013-04-07 16:17:00,
2013-04-07 10:22:00,45.2,34.2,29.63,North,-999,0.0,0.0,65,0.00,,,0.00,172.00,VWS V14.01,2013-04-07 16:22:00,
2013-04-07 10:27:00,45.5,34.4,29.63,North,-999,0.0,0.0,65,0.00,,,0.00,162.00,VWS V14.01,2013-04-07 16:27:00,
2013-04-07 10:32:00,45.7,34.2,29.63,North,-999,0.0,0.0,64,0.00,,,0.00,172.00,VWS V14.01,2013-04-07 16:32:00,
2013-04-07 10:37:00,45.7,34.2,29.63,North,-999,0.0,4.0,64,0.00,,,0.00,181.00,VWS V14.01,2013-04-07 16:37:00,
2013-04-07 10:42:00,45.8,34.3,29.62,North,-999,2.0,4.0,64,0.00,,,0.00,195.00,VWS V14.01,2013-04-07 16:42:00,
2013-04-07 10:47:00,45.9,34.8,29.62,North,-999,3.0,6.0,65,0.00,,,0.00,195.00,VWS V14.01,2013-04-07 16:47:00,
2013-04-07 10:52:00,46.0,34.5,29.63,North,-999,3.0,5.0,64,0.00,,,0.00,195.00,VWS V14.01,2013-04-07 16:52:00,
2013-04-07 10:57:00,46.0,34.5,29.62,North,-999,0.0,6.0,64,0.00,,,0.00,202.00,VWS V14.01,2013-04-07 16:57:00,
2013-04-07 11:02:00,46.1,34.6,29.62,North,-999,0.0,4.0,64,0.00,,,0.00,172.00,VWS V14.01,2013-04-07 17:02:00,
2013-04-07 11:07:00,46.4,34.5,29.62,North,-999,5.0,6.0,63,0.00,,,0.00,149.00,VWS V14.01,2013-04-07 17:07:00,
2013-04-07 11:12:00,46.5,34.2,29.62,North,-999,4.0,7.0,62,0.00,,,0.00,144.00,VWS V14.01,2013-04-07 17:12:00,
2013-04-07 11:17:00,46.7,34.4,29.62,North,-999,0.0,7.0,62,0.00,,,0.00,165.00,VWS V14.01,2013-04-07 17:17:00,
2013-04-07 11:22:00,46.9,34.6,29.62,North,-999,5.0,10.0,62,0.00,,,0.00,163.00,VWS V14.01,2013-04-07 17:22:00,
2013-04-07 11:27:00,46.8,34.9,29.62,North,-999,4.0,10.0,63,0.00,,,0.00,172.00,VWS V14.01,2013-04-07 17:27:00,
2013-04-07 11:32:00,46.8,34.9,29.62,North,-999,9.0,10.0,63,0.00,,,0.00,185.00,VWS V14.01,2013-04-07 17:32:00,
2013-04-07 11:37:00,46.9,34.6,29.61,North,-999,5.0,10.0,62,0.00,,,0.00,214.00,VWS V14.01,2013-04-07 17:37:00,
2013-04-07 11:42:00,47.2,34.9,29.61,North,-999,5.0,7.0,62,0.00,,,0.00,248.00,VWS V14.01,2013-04-07 17:42:00,
2013-04-07 11:47:00,47.5,34.7,29.61,North,-999,6.0,11.0,61,0.00,,,0.00,262.00,VWS V14.01,2013-04-07 17:47:00,
2013-04-07 11:52:00,47.9,35.1,29.60,North,-999,5.0,11.0,61,0.00,,,0.00,229.00,VWS V14.01,2013-04-07 17:52:00,
2013-04-07 11:57:00,48.7,34.6,29.60,North,-999,4.0,13.0,58,0.00,,,0.00,241.00,VWS V14.01,2013-04-07 17:57:00,
2013-04-07 12:02:00,49.6,33.7,29.60,North,-999,12.0,15.0,54,0.00,,,0.00,230.00,VWS V14.01,2013-04-07 18:02:00,
2013-04-07 12:07:00,50.1,32.7,29.60,North,-999,12.0,15.0,51,0.00,,,0.00,223.00,VWS V14.01,2013-04-07 18:07:00,
2013-04-07 12:12:00,50.5,32.6,29.60,North,-999,6.0,14.0,50,0.00,,,0.00,302.00,VWS V14.01,2013-04-07 18:12:00,
2013-04-07 12:17:00,51.0,33.0,29.60,North,-999,11.0,14.0,50,0.00,,,0.00,373.00,VWS V14.01,2013-04-07 18:17:00,
2013-04-07 12:22:00,51.3,33.8,29.59,North,-999,14.0,16.0,51,0.00,,,0.00,367.00,VWS V14.01,2013-04-07 18:22:00,
2013-04-07 12:27:00,51.0,33.5,29.59,North,-999,12.0,18.0,51,0.00,,,0.00,341.00,VWS V14.01,2013-04-07 18:27:00,
2013-04-07 12:32:00,51.2,33.7,29.59,North,-999,13.0,16.0,51,0.00,,,0.00,315.00,VWS V14.01,2013-04-07 18:32:00,
2013-04-07 12:37:00,51.3,33.3,29.59,North,-999,8.0,16.0,50,0.00,,,0.00,381.00,VWS V14.01,2013-04-07 18:37:00,
2013-04-07 12:42:00,51.7,33.2,29.59,North,-999,12.0,16.0,49,0.00,,,0.00,520.00,VWS V14.01,2013-04-07 18:42:00,
2013-04-07 12:47:00,52.2,32.6,29.58,North,-999,12.0,17.0,47,0.00,,,0.00,849.00,VWS V14.01,2013-04-07 18:47:00,
2013-04-07 12:52:00,52.9,32.7,29.58,North,-999,10.0,16.0,46,0.00,,,0.00,403.00,VWS V14.01,2013-04-07 18:52:00,
2013-04-07 12:57:00,52.8,32.6,29.58,North,-999,10.0,16.0,46,0.00,,,0.00,200.00,VWS V14.01,2013-04-07 18:57:00,
2013-04-07 13:02:00,52.3,32.2,29.58,North,-999,11.0,20.0,46,0.00,,,0.00,120.00,VWS V14.01,2013-04-07 19:02:00,
2013-04-07 13:07:00,52.2,32.1,29.58,North,-999,1.0,20.0,46,0.00,,,0.00,139.00,VWS V14.01,2013-04-07 19:07:00,
2013-04-07 13:12:00,52.2,32.1,29.58,North,-999,13.0,16.0,46,0.00,,,0.00,244.00,VWS V14.01,2013-04-07 19:12:00,
2013-04-07 13:17:00,52.4,32.2,29.58,North,-999,12.0,16.0,46,0.00,,,0.00,436.00,VWS V14.01,2013-04-07 19:17:00,
2013-04-07 13:22:00,52.8,32.6,29.57,North,-999,10.0,15.0,46,0.00,,,0.00,439.00,VWS V14.01,2013-04-07 19:22:00,
2013-04-07 13:27:00,53.2,32.4,29.57,North,-999,14.0,18.0,45,0.00,,,0.00,1067.00,VWS V14.01,2013-04-07 19:27:00,
2013-04-07 13:32:00,53.7,32.9,29.56,North,-999,13.0,18.0,45,0.00,,,0.00,1009.00,VWS V14.01,2013-04-07 19:32:00,
2013-04-07 13:37:00,54.2,32.2,29.56,North,-999,14.0,18.0,43,0.00,,,0.00,1027.00,VWS V14.01,2013-04-07 19:37:00,
2013-04-07 13:42:00,54.0,32.0,29.55,North,-999,14.0,18.0,43,0.00,,,0.00,381.00,VWS V14.01,2013-04-07 19:42:00,
2013-04-07 13:47:00,54.5,32.5,29.55,North,-999,11.0,18.0,43,0.00,,,0.00,932.00,VWS V14.01,2013-04-07 19:47:00,
2013-04-07 13:52:00,54.8,32.8,29.54,North,-999,10.0,20.0,43,0.00,,,0.00,851.00,VWS V14.01,2013-04-07 19:52:00,
2013-04-07 13:57:00,55.8,32.5,29.54,North,-999,13.0,21.0,41,0.00,,,0.00,786.00,VWS V14.01,2013-04-07 19:57:00,
2013-04-07 14:02:00,55.9,32.0,29.54,North,-999,16.0,21.0,40,0.00,,,0.00,638.00,VWS V14.01,2013-04-07 20:02:00,
2013-04-07 14:07:00,56.2,32.2,29.54,North,-999,12.0,21.0,40,0.00,,,0.00,844.00,VWS V14.01,2013-04-07 20:07:00,
2013-04-07 14:12:00,56.2,32.2,29.53,North,-999,18.0,20.0,40,0.00,,,0.00,366.00,VWS V14.01,2013-04-07 20:12:00,
2013-04-07 14:17:00,55.6,31.7,29.53,North,-999,12.0,24.0,40,0.00,,,0.00,274.00,VWS V14.01,2013-04-07 20:17:00,
2013-04-07 14:22:00,55.6,32.3,29.53,North,-999,12.0,20.0,41,0.00,,,0.00,601.00,VWS V14.01,2013-04-07 20:22:00,
2013-04-07 14:27:00,56.2,31.6,29.53,North,-999,13.0,21.0,39,0.00,,,0.00,487.00,VWS V14.01,2013-04-07 20:27:00,
2013-04-07 14:32:00,55.8,31.9,29.52,North,-999,14.0,18.0,40,0.00,,,0.00,97.00,VWS V14.01,2013-04-07 20:32:00,
2013-04-07 14:37:00,55.3,32.0,29.52,North,-999,10.0,18.0,41,0.00,,,0.00,83.00,VWS V14.01,2013-04-07 20:37:00,
2013-04-07 14:42:00,54.9,31.7,29.52,North,-999,7.0,18.0,41,0.00,,,0.00,81.00,VWS V14.01,2013-04-07 20:42:00,
2013-04-07 14:47:00,55.0,31.8,29.53,North,-999,9.0,18.0,41,0.00,,,0.00,137.00,VWS V14.01,2013-04-07 20:47:00,
2013-04-07 14:52:00,54.7,33.8,29.53,North,-999,5.0,20.0,45,0.00,,,0.00,137.00,VWS V14.01,2013-04-07 20:52:00,
2013-04-07 14:57:00,54.2,35.0,29.52,North,-999,0.0,20.0,48,0.00,,,0.00,105.00,VWS V14.01,2013-04-07 20:57:00,
2013-04-07 15:02:00,53.6,33.9,29.52,North,-999,5.0,10.0,47,0.00,,,0.00,86.00,VWS V14.01,2013-04-07 21:02:00,
2013-04-07 15:07:00,53.2,36.0,29.52,North,-999,0.0,10.0,52,0.00,,,0.00,63.00,VWS V14.01,2013-04-07 21:07:00,
2013-04-07 15:12:00,53.0,34.9,29.52,North,-999,0.0,4.0,50,0.01,,,0.01,63.00,VWS V14.01,2013-04-07 21:12:00,
2013-04-07 15:18:00,52.9,36.2,29.52,North,-999,0.0,4.0,53,0.01,,,0.01,63.00,VWS V14.01,2013-04-07 21:18:00,
2013-04-07 15:22:00,53.0,34.9,29.52,North,-999,0.0,5.0,50,0.01,,,0.01,127.00,VWS V14.01,2013-04-07 21:22:00,
2013-04-07 15:28:00,52.2,35.1,29.52,North,-999,0.0,18.0,52,0.03,,,0.03,267.00,VWS V14.01,2013-04-07 21:28:00,
2013-04-07 15:33:00,51.9,34.8,29.51,North,-999,8.0,9.0,52,0.04,,,0.04,392.00,VWS V14.01,2013-04-07 21:33:00,
2013-04-07 15:38:00,52.0,34.0,29.51,North,-999,0.0,16.0,50,0.04,,,0.04,334.00,VWS V14.01,2013-04-07 21:38:00,
2013-04-07 15:43:00,52.5,37.3,29.51,North,-999,0.0,4.0,56,0.04,,,0.04,320.00,VWS V14.01,2013-04-07 21:43:00,
2013-04-07 15:48:00,52.9,36.7,29.50,North,-999,2.0,4.0,54,0.04,,,0.04,283.00,VWS V14.01,2013-04-07 21:48:00,
2013-04-07 15:53:00,53.3,35.7,29.50,North,-999,0.0,4.0,51,0.04,,,0.04,288.00,VWS V14.01,2013-04-07 21:53:00,
2013-04-07 15:58:00,53.6,35.9,29.50,North,-999,0.0,4.0,51,0.04,,,0.04,387.00,VWS V14.01,2013-04-07 21:58:00,
2013-04-07 16:03:00,53.9,37.7,29.50,North,-999,5.0,9.0,54,0.04,,,0.04,605.00,VWS V14.01,2013-04-07 22:03:00,
2013-04-07 16:08:00,54.1,35.4,29.50,North,-999,4.0,9.0,49,0.04,,,0.04,752.00,VWS V14.01,2013-04-07 22:08:00,
2013-04-07 16:13:00,54.4,34.1,29.50,North,-999,6.0,7.0,46,0.04,,,0.04,710.00,VWS V14.01,2013-04-07 22:13:00,
2013-04-07 16:18:00,54.4,36.2,29.50,North,-999,9.0,10.0,50,0.04,,,0.04,629.00,VWS V14.01,2013-04-07 22:18:00,
2013-04-07 16:23:00,54.1,36.9,29.50,North,-999,6.0,11.0,52,0.03,,,0.04,186.00,VWS V14.01,2013-04-07 22:23:00,
2013-04-07 16:28:00,53.9,36.7,29.50,North,-999,6.0,11.0,52,0.03,,,0.04,357.00,VWS V14.01,2013-04-07 22:28:00,
2013-04-07 16:33:00,54.2,37.9,29.50,North,-999,9.0,10.0,54,0.01,,,0.04,202.00,VWS V14.01,2013-04-07 22:33:00,
2013-04-07 16:38:00,54.5,38.2,29.50,North,-999,8.0,18.0,54,0.01,,,0.04,139.00,VWS V14.01,2013-04-07 22:38:00,
2013-04-07 16:43:00,54.8,36.0,29.50,North,-999,5.0,13.0,49,0.00,,,0.04,144.00,VWS V14.01,2013-04-07 22:43:00,
2013-04-07 16:48:00,54.9,32.8,29.50,North,-999,5.0,13.0,43,0.00,,,0.04,113.00,VWS V14.01,2013-04-07 22:48:00,
2013-04-07 16:53:00,55.0,35.7,29.50,North,-999,7.0,10.0,48,0.00,,,0.04,107.00,VWS V14.01,2013-04-07 22:53:00,
2013-04-07 16:58:00,55.3,33.8,29.50,North,-999,0.0,10.0,44,0.00,,,0.04,134.00,VWS V14.01,2013-04-07 22:58:00,
2013-04-07 17:03:00,55.7,35.3,29.49,North,-999,0.0,9.0,46,0.00,,,0.04,197.00,VWS V14.01,2013-04-07 23:03:00,
2013-04-07 17:08:00,55.9,31.3,29.49,North,-999,10.0,11.0,39,0.00,,,0.04,192.00,VWS V14.01,2013-04-07 23:08:00,
2013-04-07 17:13:00,56.0,32.7,29.49,North,-999,20.0,20.0,41,0.00,,,0.04,190.00,VWS V14.01,2013-04-07 23:13:00,
2013-04-07 17:18:00,55.7,33.6,29.49,North,-999,20.0,20.0,43,0.00,,,0.04,190.00,VWS V14.01,2013-04-07 23:18:00,
2013-04-07 17:23:00,55.3,32.6,29.49,North,-999,20.0,25.0,42,0.00,,,0.04,206.00,VWS V14.01,2013-04-07 23:23:00,
2013-04-07 17:28:00,55.3,32.6,29.48,North,-999,14.0,15.0,42,0.00,,,0.04,221.00,VWS V14.01,2013-04-07 23:28:00,
2013-04-07 17:33:00,55.9,30.0,29.48,North,-999,11.0,19.0,37,0.00,,,0.04,211.00,VWS V14.01,2013-04-07 23:33:00,
2013-04-07 17:38:00,56.3,32.3,29.48,North,-999,8.0,9.0,40,0.00,,,0.04,373.00,VWS V14.01,2013-04-07 23:38:00,
2013-04-07 17:43:00,56.7,32.0,29.48,North,-999,4.0,10.0,39,0.00,,,0.04,223.00,VWS V14.01,2013-04-07 23:43:00,
2013-04-07 17:48:00,56.7,32.0,29.48,North,-999,5.0,5.0,39,0.00,,,0.04,144.00,VWS V14.01,2013-04-07 23:48:00,
2013-04-07 17:53:00,56.5,33.7,29.49,North,-999,22.0,22.0,42,0.00,,,0.04,104.00,VWS V14.01,2013-04-07 23:53:00,
2013-04-07 17:58:00,55.9,31.3,29.49,North,-999,20.0,20.0,39,0.00,,,0.04,56.00,VWS V14.01,2013-04-07 23:58:00,
2013-04-07 18:03:00,55.4,30.2,29.49,North,-999,18.0,29.0,38,0.00,,,0.04,54.00,VWS V14.01,2013-04-08 00:03:00,
2013-04-07 18:08:00,54.7,29.0,29.50,North,-999,21.0,23.0,37,0.00,,,0.04,62.00,VWS V14.01,2013-04-08 00:08:00,
2013-04-07 18:13:00,53.7,27.4,29.50,North,-999,17.0,33.0,36,0.00,,,0.04,58.00,VWS V14.01,2013-04-08 00:13:00,
2013-04-07 18:18:00,53.0,28.1,29.50,North,-999,26.0,26.0,38,0.00,,,0.04,51.00,VWS V14.01,2013-04-08 00:18:00,
2013-04-07 18:23:00,52.2,30.4,29.50,North,-999,22.0,30.0,43,0.00,,,0.04,42.00,VWS V14.01,2013-04-08 00:23:00,
2013-04-07 18:28:00,51.4,29.7,29.51,North,-999,21.0,23.0,43,0.00,,,0.04,40.00,VWS V14.01,2013-04-08 00:28:00,
2013-04-07 18:33:00,51.0,31.0,29.50,North,-999,17.0,23.0,46,0.00,,,0.04,49.00,VWS V14.01,2013-04-08 00:33:00,
2013-04-07 18:38:00,50.9,30.9,29.50,North,-999,13.0,13.0,46,0.00,,,0.04,63.00,VWS V14.01,2013-04-08 00:38:00,
2013-04-07 18:43:00,50.8,31.3,29.50,North,-999,15.0,19.0,47,0.00,,,0.04,58.00,VWS V14.01,2013-04-08 00:43:00,
2013-04-07 18:48:00,50.6,31.1,29.50,North,-999,17.0,17.0,47,0.00,,,0.04,46.00,VWS V14.01,2013-04-08 00:48:00,
2013-04-07 18:53:00,50.4,31.0,29.50,North,-999,15.0,21.0,47,0.00,,,0.04,40.00,VWS V14.01,2013-04-08 00:53:00,
2013-04-07 18:58:00,50.2,31.3,29.51,North,-999,15.0,15.0,48,0.00,,,0.04,33.00,VWS V14.01,2013-04-08 00:58:00,
2013-04-07 19:03:00,50.1,31.7,29.51,North,-999,17.0,17.0,49,0.00,,,0.04,26.00,VWS V14.01,2013-04-08 01:03:00,
2013-04-07 19:08:00,49.9,32.0,29.50,North,-999,12.0,12.0,50,0.00,,,0.04,23.00,VWS V14.01,2013-04-08 01:08:00,
2013-04-07 19:13:00,49.8,31.4,29.51,North,-999,12.0,17.0,49,0.00,,,0.04,16.00,VWS V14.01,2013-04-08 01:13:00,
2013-04-07 19:18:00,50.4,31.0,29.50,North,-999,9.0,11.0,47,0.00,,,0.04,11.00,VWS V14.01,2013-04-08 01:18:00,
2013-04-07 19:23:00,50.2,30.8,29.51,North,-999,13.0,16.0,47,0.00,,,0.04,7.00,VWS V14.01,2013-04-08 01:23:00,
2013-04-07 19:28:00,50.3,30.3,29.51,North,-999,13.0,17.0,46,0.00,,,0.04,5.00,VWS V14.01,2013-04-08 01:28:00,
2013-04-07 19:33:00,50.5,30.0,29.51,North,-999,19.0,21.0,45,0.00,,,0.04,0.00,VWS V14.01,2013-04-08 01:33:00,
2013-04-07 19:38:00,50.4,30.4,29.51,North,-999,14.0,15.0,46,0.00,,,0.04,0.00,VWS V14.01,2013-04-08 01:38:00,
2013-04-07 19:43:00,50.0,30.0,29.51,North,-999,18.0,23.0,46,0.00,,,0.04,0.00,VWS V14.01,2013-04-08 01:43:00,
2013-04-07 19:48:00,49.7,30.8,29.51,North,-999,17.0,18.0,48,0.00,,,0.04,0.00,VWS V14.01,2013-04-08 01:48:00,
2013-04-07 19:53:00,49.1,31.3,29.51,North,-999,19.0,20.0,50,0.00,,,0.04,0.00,VWS V14.01,2013-04-08 01:53:00,
2013-04-07 19:58:00,48.7,31.4,29.51,North,-999,21.0,21.0,51,0.00,,,0.04,0.00,VWS V14.01,2013-04-08 01:58:00,
2013-04-07 20:03:00,48.6,31.8,29.52,North,-999,16.0,23.0,52,0.00,,,0.04,0.00,VWS V14.01,2013-04-08 02:03:00,
2013-04-07 20:08:00,48.4,31.6,29.52,North,-999,16.0,18.0,52,0.00,,,0.04,0.00,VWS V14.01,2013-04-08 02:08:00,
2013-04-07 20:13:00,48.5,31.7,29.52,North,-999,13.0,19.0,52,0.00,,,0.04,0.00,VWS V14.01,2013-04-08 02:13:00,
2013-04-07 20:18:00,48.9,31.1,29.53,North,-999,19.0,20.0,50,0.00,,,0.04,0.00,VWS V14.01,2013-04-08 02:18:00,
2013-04-07 20:23:00,49.3,31.0,29.53,North,-999,21.0,26.0,49,0.00,,,0.04,0.00,VWS V14.01,2013-04-08 02:23:00,
2013-04-07 20:28:00,49.0,31.7,29.54,North,-999,17.0,17.0,51,0.00,,,0.04,0.00,VWS V14.01,2013-04-08 02:28:00,
2013-04-07 20:33:00,48.3,34.2,29.53,North,-999,18.0,21.0,58,0.00,,,0.04,0.00,VWS V14.01,2013-04-08 02:33:00,
2013-04-07 20:38:00,47.3,35.0,29.54,North,-999,18.0,18.0,62,0.00,,,0.04,0.00,VWS V14.01,2013-04-08 02:38:00,
2013-04-07 20:43:00,46.7,35.2,29.53,North,-999,12.0,19.0,64,0.00,,,0.04,0.00,VWS V14.01,2013-04-08 02:43:00,
2013-04-07 20:48:00,46.3,35.2,29.53,North,-999,17.0,24.0,65,0.00,,,0.04,0.00,VWS V14.01,2013-04-08 02:48:00,
2013-04-07 20:53:00,45.9,35.6,29.53,North,-999,13.0,24.0,67,0.00,,,0.04,0.00,VWS V14.01,2013-04-08 02:53:00,
2013-04-07 20:58:00,45.5,35.6,29.54,North,-999,20.0,20.0,68,0.00,,,0.04,0.00,VWS V14.01,2013-04-08 02:58:00,
2013-04-07 21:03:00,45.3,35.4,29.53,North,-999,15.0,23.0,68,0.00,,,0.04,0.00,VWS V14.01,2013-04-08 03:03:00,
2013-04-07 21:08:00,45.1,35.5,29.53,North,-999,14.0,17.0,69,0.00,,,0.04,0.00,VWS V14.01,2013-04-08 03:08:00,
2013-04-07 21:13:00,44.8,35.6,29.54,North,-999,9.0,20.0,70,0.00,,,0.04,0.00,VWS V14.01,2013-04-08 03:13:00,
2013-04-07 21:18:00,44.6,35.4,29.54,North,-999,12.0,16.0,70,0.00,,,0.04,0.00,VWS V14.01,2013-04-08 03:18:00,
2013-04-07 21:23:00,44.3,35.5,29.55,North,-999,15.0,18.0,71,0.00,,,0.04,0.00,VWS V14.01,2013-04-08 03:23:00,
2013-04-07 21:28:00,44.2,35.8,29.55,North,-999,11.0,13.0,72,0.00,,,0.04,0.00,VWS V14.01,2013-04-08 03:28:00,
2013-04-07 21:33:00,43.9,35.8,29.55,North,-999,16.0,20.0,73,0.00,,,0.04,0.00,VWS V14.01,2013-04-08 03:33:00,
2013-04-07 21:38:00,43.5,35.8,29.55,North,-999,14.0,15.0,74,0.00,,,0.04,0.00,VWS V14.01,2013-04-08 03:38:00,
2013-04-07 21:43:00,43.2,35.5,29.56,North,-999,6.0,17.0,74,0.00,,,0.04,0.00,VWS V14.01,2013-04-08 03:43:00,
2013-04-07 21:49:00,43.0,35.6,29.56,North,-999,10.0,16.0,75,0.00,,,0.04,0.00,VWS V14.01,2013-04-08 03:49:00,
2013-04-07 21:54:00,42.8,35.4,29.56,North,-999,11.0,16.0,75,0.00,,,0.04,0.00,VWS V14.01,2013-04-08 03:54:00,
2013-04-07 21:59:00,42.7,35.7,29.56,North,-999,12.0,12.0,76,0.00,,,0.04,0.00,VWS V14.01,2013-04-08 03:59:00,
2013-04-07 22:00:00,42.6,35.6,29.57,North,-999,7.0,15.0,76,0.00,,,0.04,0.00,VWS V14.01,2013-04-08 04:00:00,
2013-04-07 22:01:00,42.6,35.6,29.56,North,-999,12.0,15.0,76,0.00,,,0.04,0.00,VWS V14.01,2013-04-08 04:01:00,
2013-04-07 22:06:00,42.4,35.7,29.56,North,-999,15.0,16.0,77,0.00,,,0.04,0.00,VWS V14.01,2013-04-08 04:06:00,
2013-04-07 22:11:00,42.1,35.8,29.57,North,-999,6.0,17.0,78,0.00,,,0.04,0.00,VWS V14.01,2013-04-08 04:11:00,
2013-04-07 22:16:00,41.7,36.0,29.57,North,-999,6.0,17.0,80,0.00,,,0.04,0.00,VWS V14.01,2013-04-08 04:16:00,
2013-04-07 22:21:00,41.6,36.2,29.57,North,-999,13.0,23.0,81,0.00,,,0.04,0.00,VWS V14.01,2013-04-08 04:21:00,
2013-04-07 22:26:00,41.5,36.1,29.57,North,-999,7.0,23.0,81,0.00,,,0.04,0.00,VWS V14.01,2013-04-08 04:26:00,
2013-04-07 22:31:00,41.3,35.9,29.57,North,-999,9.0,13.0,81,0.00,,,0.04,0.00,VWS V14.01,2013-04-08 04:31:00,
2013-04-07 22:36:00,41.3,35.9,29.57,North,-999,4.0,13.0,81,0.00,,,0.04,0.00,VWS V14.01,2013-04-08 04:36:00,
2013-04-07 22:41:00,41.2,35.8,29.57,North,-999,3.0,9.0,81,0.00,,,0.04,0.00,VWS V14.01,2013-04-08 04:41:00,
2013-04-07 22:46:00,41.2,35.8,29.57,North,-999,4.0,9.0,81,0.00,,,0.04,0.00,VWS V14.01,2013-04-08 04:46:00,
2013-04-07 22:51:00,41.2,35.5,29.57,North,-999,8.0,10.0,80,0.00,,,0.04,0.00,VWS V14.01,2013-04-08 04:51:00,
2013-04-07 22:56:00,41.2,35.5,29.57,North,-999,10.0,10.0,80,0.00,,,0.04,0.00,VWS V14.01,2013-04-08 04:56:00,
2013-04-07 23:01:00,41.1,35.4,29.57,North,-999,10.0,13.0,80,0.00,,,0.04,0.00,VWS V14.01,2013-04-08 05:01:00,
2013-04-07 23:06:00,41.1,35.4,29.57,North,-999,8.0,13.0,80,0.00,,,0.04,0.00,VWS V14.01,2013-04-08 05:06:00,
2013-04-07 23:11:00,41.1,35.4,29.57,North,-999,5.0,12.0,80,0.00,,,0.04,0.00,VWS V14.01,2013-04-08 05:11:00,
2013-04-07 23:16:00,41.1,35.4,29.58,North,-999,5.0,12.0,80,0.00,,,0.04,0.00,VWS V14.01,2013-04-08 05:16:00,
2013-04-07 23:21:00,41.0,35.3,29.58,North,-999,12.0,12.0,80,0.00,,,0.04,0.00,VWS V14.01,2013-04-08 05:21:00,
2013-04-07 23:26:00,40.5,34.8,29.58,North,-999,13.0,13.0,80,0.00,,,0.04,0.00,VWS V14.01,2013-04-08 05:26:00,
2013-04-07 23:31:00,40.5,34.8,29.58,North,-999,13.0,15.0,80,0.00,,,0.04,0.00,VWS V14.01,2013-04-08 05:31:00,
2013-04-07 23:36:00,40.8,35.1,29.59,North,-999,6.0,15.0,80,0.00,,,0.04,0.00,VWS V14.01,2013-04-08 05:36:00,
2013-04-07 23:41:00,41.0,35.3,29.59,North,-999,4.0,9.0,80,0.00,,,0.04,0.00,VWS V14.01,2013-04-08 05:41:00,
2013-04-07 23:46:00,41.2,35.5,29.58,North,-999,7.0,10.0,80,0.00,,,0.04,0.00,VWS V14.01,2013-04-08 05:46:00,
2013-04-07 23:51:00,41.1,35.4,29.58,North,-999,3.0,8.0,80,0.00,,,0.04,0.00,VWS V14.01,2013-04-08 05:51:00,
2013-04-07 23:56:00,41.1,35.4,29.58,North,-999,5.0,10.0,80,0.00,,,0.04,0.00,VWS V14.01,2013-04-08 05:56:00,